Time;durP1;ratioP1;P1;durP2;ratioP2;P2;SDS_P1;SDS_P2;PMS_P1;PMS_P2;Temp;Humidity;BMP_temperature;BMP_pressure;BME280_temperature;BME280_humidity;BME280_pressure;Samples;Min_cycle;Max_cycle;Signal;HPM_P1;HPM_P2
2021/08/28 00:01:57;;;;;;;35.50;25.33;;;15.80;99.40;;;;;;5052106;28;20037;-75
2021/08/28 00:04:23;;;;;;;36.92;25.85;;;15.70;99.70;;;;;;5053273;28;20094;-76
2021/08/28 00:06:48;;;;;;;35.35;25.02;;;15.80;99.10;;;;;;5051835;28;20441;-75
2021/08/28 00:09:14;;;;;;;32.00;22.73;;;15.80;98.50;;;;;;5053263;28;20029;-75
2021/08/28 00:11:40;;;;;;;40.22;26.35;;;15.70;98.10;;;;;;5052992;28;20052;-76
2021/08/28 00:14:06;;;;;;;45.05;27.70;;;15.70;97.80;;;;;;5051966;28;20067;-75
2021/08/28 00:16:32;;;;;;;38.50;24.33;;;15.70;98.20;;;;;;5053055;28;20052;-75
2021/08/28 00:18:57;;;;;;;34.45;23.38;;;15.60;98.50;;;;;;5051853;28;20486;-75
2021/08/28 00:21:23;;;;;;;48.40;28.90;;;15.60;99.30;;;;;;5051941;28;20429;-75
2021/08/28 00:23:49;;;;;;;32.35;22.38;;;15.70;99.90;;;;;;5052908;28;20025;-75
2021/08/28 00:26:15;;;;;;;36.30;24.42;;;15.70;99.90;;;;;;5052809;28;20032;-75
2021/08/28 00:28:40;;;;;;;30.60;21.63;;;15.80;98.80;;;;;;5053108;28;20029;-75
2021/08/28 00:31:06;;;;;;;33.75;23.33;;;15.80;98.30;;;;;;5052294;28;20052;-75
2021/08/28 00:33:32;;;;;;;43.42;26.25;;;15.80;98.50;;;;;;5053083;28;20345;-75
2021/08/28 00:35:57;;;;;;;38.67;25.15;;;15.80;98.20;;;;;;5053374;28;20051;-75
2021/08/28 00:38:23;;;;;;;45.53;28.67;;;15.70;97.40;;;;;;5056490;28;20037;-75
2021/08/28 00:40:49;;;;;;;57.15;35.65;;;15.60;97.80;;;;;;5055484;28;20406;-76
2021/08/28 00:43:14;;;;;;;72.00;41.90;;;15.60;99.20;;;;;;5056442;28;20460;-76
2021/08/28 00:45:41;;;;;;;70.57;40.90;;;15.60;99.90;;;;;;5056492;28;20524;-75
2021/08/28 00:48:14;;;;;;;81.60;41.70;;;15.60;99.90;;;;;;5056382;28;20029;-75
2021/08/28 00:50:42;;;;;;;55.17;29.75;;;15.50;99.90;;;;;;5056240;28;20044;-76
2021/08/28 00:53:10;;;;;;;30.40;21.17;;;15.50;99.90;;;;;;5056246;28;20028;-75
2021/08/28 00:55:37;;;;;;;34.35;22.25;;;15.50;99.90;;;;;;5056232;28;20467;-75
2021/08/28 00:58:10;;;;;;;37.67;22.83;;;15.50;99.90;;;;;;5055210;28;20371;-76
2021/08/28 01:00:55;;;;;;;35.97;21.75;;;15.50;99.90;;;;;;5055162;28;20029;-76
2021/08/28 01:03:30;;;;;;;37.50;25.25;;;15.50;99.90;;;;;;5054779;28;20021;-75
2021/08/28 01:06:07;;;;;;;41.50;25.48;;;15.40;99.90;;;;;;5055570;28;20499;-75
2021/08/28 01:08:43;;;;;;;36.03;23.70;;;15.40;99.90;;;;;;5055004;28;20041;-75
2021/08/28 01:11:21;;;;;;;26.95;19.85;;;15.40;99.90;;;;;;5056517;28;20036;-75
2021/08/28 01:13:53;;;;;;;26.30;19.48;;;15.40;99.90;;;;;;5055892;28;20029;-75
2021/08/28 01:16:21;;;;;;;31.80;22.90;;;15.30;99.90;;;;;;5055073;28;20379;-75
2021/08/28 01:18:47;;;;;;;40.17;26.75;;;15.20;99.90;;;;;;5056410;28;20047;-76
2021/08/28 01:21:36;;;;;;;35.55;23.75;;;15.20;99.90;;;;;;5055690;28;20455;-75
2021/08/28 01:24:05;;;;;;;29.67;20.00;;;15.20;99.90;;;;;;5055923;28;20057;-75
2021/08/28 01:26:40;;;;;;;31.10;20.80;;;15.10;99.90;;;;;;5055481;28;20037;-75
2021/08/28 01:29:11;;;;;;;26.13;18.60;;;15.20;99.90;;;;;;5056273;28;20048;-75
2021/08/28 01:31:37;;;;;;;25.10;17.63;;;15.20;99.90;;;;;;5055490;28;20268;-75
2021/08/28 01:34:03;;;;;;;20.38;16.73;;;15.20;99.90;;;;;;5055664;28;20052;-75
2021/08/28 01:36:31;;;;;;;22.25;16.52;;;15.20;99.90;;;;;;5055579;28;20098;-75
2021/08/28 01:38:57;;;;;;;24.25;18.08;;;15.20;99.90;;;;;;5054055;28;20028;-74
2021/08/28 01:41:26;;;;;;;22.58;16.48;;;15.20;99.90;;;;;;5055886;28;20024;-75
2021/08/28 01:43:52;;;;;;;21.52;16.63;;;15.20;99.90;;;;;;5055860;28;20025;-75
2021/08/28 01:46:17;;;;;;;21.42;15.65;;;15.20;99.90;;;;;;5055267;28;20386;-75
2021/08/28 01:48:46;;;;;;;22.95;18.38;;;15.30;99.90;;;;;;5054616;28;20033;-75
2021/08/28 01:51:12;;;;;;;20.80;16.13;;;15.30;99.90;;;;;;5053904;28;20032;-74
2021/08/28 01:53:37;;;;;;;21.77;15.98;;;15.30;99.90;;;;;;5055194;28;20406;-74
2021/08/28 01:56:04;;;;;;;23.88;15.48;;;15.30;99.90;;;;;;5054013;28;20029;-74
2021/08/28 01:58:30;;;;;;;22.60;16.83;;;15.30;99.90;;;;;;5053912;28;20562;-75
2021/08/28 02:00:56;;;;;;;25.08;17.58;;;15.30;99.90;;;;;;5055063;28;20060;-75
2021/08/28 02:03:22;;;;;;;24.85;17.80;;;15.20;99.90;;;;;;5054914;28;20040;-75
2021/08/28 02:05:55;;;;;;;24.75;17.13;;;15.20;99.90;;;;;;5055185;28;20033;-75
2021/08/28 02:08:39;;;;;;;21.05;15.65;;;15.20;99.90;;;;;;5055116;28;20029;-76
2021/08/28 02:11:14;;;;;;;23.85;16.77;;;15.30;99.90;;;;;;5054117;28;20074;-76
2021/08/28 02:13:48;;;;;;;25.17;18.07;;;15.30;99.90;;;;;;5053942;28;20128;-75
2021/08/28 02:16:17;;;;;;;27.75;18.52;;;15.30;99.90;;;;;;5054700;28;20274;-75
2021/08/28 02:18:52;;;;;;;27.67;19.63;;;15.30;99.90;;;;;;5054587;28;20124;-75
2021/08/28 02:21:20;;;;;;;31.33;20.63;;;15.30;99.90;;;;;;5053518;28;20021;-75
2021/08/28 02:23:50;;;;;;;29.63;19.35;;;15.40;99.90;;;;;;5054622;28;20029;-75
2021/08/28 02:26:19;;;;;;;28.38;18.40;;;15.40;99.90;;;;;;5054394;28;20471;-75
2021/08/28 02:29:05;;;;;;;29.17;18.35;;;15.50;99.90;;;;;;5054352;28;20025;-75
2021/08/28 02:31:47;;;;;;;27.05;17.65;;;15.50;99.90;;;;;;5054956;28;20505;-75
2021/08/28 02:34:14;;;;;;;25.30;17.02;;;15.50;99.90;;;;;;5054845;28;20045;-75
2021/08/28 02:36:41;;;;;;;27.30;17.40;;;15.50;99.90;;;;;;5053079;28;20029;-75
2021/08/28 02:39:09;;;;;;;26.00;16.85;;;15.50;99.90;;;;;;5054722;28;20033;-75
2021/08/28 02:41:36;;;;;;;26.60;17.65;;;15.60;99.90;;;;;;5052840;28;20031;-75
2021/08/28 02:44:03;;;;;;;24.13;17.08;;;15.60;99.90;;;;;;5041600;28;20025;-76
2021/08/28 02:46:31;;;;;;;28.55;17.10;;;15.60;99.90;;;;;;5043751;28;20031;-76
2021/08/28 02:48:58;;;;;;;25.90;17.00;;;15.60;99.90;;;;;;5043392;28;20053;-76
2021/08/28 02:51:28;;;;;;;26.45;17.15;;;15.60;99.90;;;;;;5041953;28;20411;-76
2021/08/28 02:53:55;;;;;;;24.02;16.08;;;15.70;99.90;;;;;;5041736;28;20043;-76
2021/08/28 02:56:23;;;;;;;21.60;14.40;;;15.70;99.90;;;;;;5052199;28;20068;-70
2021/08/28 02:58:49;;;;;;;25.13;16.30;;;15.70;99.90;;;;;;5054004;28;20028;-70
2021/08/28 03:01:16;;;;;;;22.20;15.25;;;15.80;99.90;;;;;;5053034;28;20040;-70
2021/08/28 03:03:43;;;;;;;23.80;15.95;;;15.80;99.90;;;;;;5053887;28;20098;-75
2021/08/28 03:06:10;;;;;;;21.02;15.20;;;15.90;99.90;;;;;;5053860;28;20035;-71
2021/08/28 03:08:39;;;;;;;21.88;15.23;;;16.00;99.80;;;;;;5053860;28;20037;-70
2021/08/28 03:11:05;;;;;;;20.25;15.20;;;16.10;99.40;;;;;;5054100;28;20036;-80
2021/08/28 03:13:31;;;;;;;23.65;15.70;;;16.10;99.00;;;;;;5052530;28;20025;-80
2021/08/28 03:15:58;;;;;;;22.95;15.90;;;16.20;98.60;;;;;;5052729;28;20171;-79
2021/08/28 03:18:26;;;;;;;23.10;15.23;;;16.20;98.30;;;;;;5053552;28;20387;-79
2021/08/28 03:20:56;;;;;;;24.48;15.40;;;16.20;98.10;;;;;;5053692;28;20032;-79
2021/08/28 03:23:25;;;;;;;24.25;16.17;;;16.30;97.90;;;;;;5045580;28;20384;-80
2021/08/28 03:25:52;;;;;;;26.13;15.93;;;16.40;97.60;;;;;;5033870;28;20151;-79
2021/08/28 03:28:18;;;;;;;22.67;15.57;;;16.40;97.10;;;;;;5031820;28;20391;-81
2021/08/28 03:30:46;;;;;;;22.83;15.57;;;16.50;96.80;;;;;;5030716;28;20038;-80
2021/08/28 03:33:14;;;;;;;23.08;15.95;;;16.60;96.40;;;;;;5031004;28;20034;-79
2021/08/28 03:35:41;;;;;;;22.10;15.27;;;16.60;96.10;;;;;;5032564;28;20029;-80
2021/08/28 03:38:07;;;;;;;22.05;15.02;;;16.60;95.90;;;;;;5031357;28;20033;-79
2021/08/28 03:40:33;;;;;;;22.60;15.02;;;16.70;95.70;;;;;;5031575;28;20037;-81
2021/08/28 03:42:58;;;;;;;21.92;15.65;;;16.80;95.80;;;;;;5031514;28;20056;-79
2021/08/28 03:45:28;;;;;;;23.45;16.15;;;16.90;95.40;;;;;;5033614;28;20026;-80
2021/08/28 03:47:54;;;;;;;22.20;15.68;;;17.00;94.80;;;;;;5033386;28;20039;-81
2021/08/28 03:50:20;;;;;;;24.02;15.90;;;17.00;94.40;;;;;;5033882;28;20065;-79
2021/08/28 03:52:46;;;;;;;22.58;15.32;;;17.10;94.20;;;;;;5032943;28;20049;-80
2021/08/28 03:55:11;;;;;;;26.17;17.25;;;17.10;94.20;;;;;;5032120;28;20446;-80
2021/08/28 03:57:37;;;;;;;24.10;16.08;;;17.10;93.90;;;;;;5032273;28;20033;-80
2021/08/28 04:00:05;;;;;;;22.80;15.90;;;17.00;94.10;;;;;;5031897;28;20028;-80
2021/08/28 04:02:30;;;;;;;23.70;15.57;;;17.10;94.10;;;;;;5033193;28;20037;-81
2021/08/28 04:04:56;;;;;;;21.90;15.65;;;17.30;95.00;;;;;;5033662;28;20404;-80
2021/08/28 04:07:22;;;;;;;22.17;15.65;;;17.70;94.60;;;;;;5033487;28;20029;-80
2021/08/28 04:09:48;;;;;;;22.05;15.05;;;18.20;93.40;;;;;;5033561;28;20103;-80
2021/08/28 04:12:14;;;;;;;20.35;14.50;;;18.60;92.00;;;;;;5033784;28;20025;-80
2021/08/28 04:14:39;;;;;;;24.40;15.52;;;19.00;91.00;;;;;;5037154;28;20486;-80
2021/08/28 04:17:05;;;;;;;22.67;15.07;;;19.40;90.10;;;;;;5037518;28;20025;-81
2021/08/28 04:19:30;;;;;;;20.75;14.60;;;19.80;87.90;;;;;;5037029;28;20025;-80
2021/08/28 04:21:56;;;;;;;22.42;16.27;;;20.10;85.40;;;;;;5035521;28;20033;-80
2021/08/28 04:24:22;;;;;;;21.42;14.27;;;20.20;83.50;;;;;;5037418;28;20032;-81
2021/08/28 04:26:47;;;;;;;20.70;14.50;;;20.40;83.50;;;;;;5035789;28;20057;-81
2021/08/28 04:29:13;;;;;;;20.65;14.90;;;20.80;82.70;;;;;;5036846;28;20034;-80
2021/08/28 04:31:39;;;;;;;23.55;14.77;;;20.90;81.00;;;;;;5035414;28;20026;-81
2021/08/28 04:34:05;;;;;;;25.13;14.25;;;20.90;80.50;;;;;;5037163;28;20025;-80
2021/08/28 04:36:30;;;;;;;25.63;15.40;;;20.80;80.50;;;;;;5037064;28;20100;-80
2021/08/28 04:38:56;;;;;;;24.65;14.38;;;20.80;80.80;;;;;;5037910;28;20021;-80
2021/08/28 04:41:22;;;;;;;21.27;15.00;;;20.70;80.80;;;;;;5037415;28;20075;-80
2021/08/28 04:43:47;;;;;;;21.85;15.30;;;20.50;80.30;;;;;;5036700;28;20464;-81
2021/08/28 04:46:13;;;;;;;19.98;13.65;;;20.40;80.70;;;;;;5036798;28;20368;-78
2021/08/28 04:48:39;;;;;;;19.52;13.05;;;20.50;81.70;;;;;;5036222;28;20029;-82
2021/08/28 04:51:05;;;;;;;17.05;12.68;;;21.00;81.90;;;;;;5035152;28;20036;-81
2021/08/28 04:53:31;;;;;;;24.38;13.38;;;21.60;80.50;;;;;;5036256;28;20116;-81
2021/08/28 04:55:56;;;;;;;19.33;12.43;;;22.30;79.20;;;;;;5036256;28;20030;-81
2021/08/28 04:58:22;;;;;;;21.60;12.40;;;22.90;77.70;;;;;;5034955;28;20043;-81
2021/08/28 05:00:47;;;;;;;15.70;11.35;;;23.60;75.80;;;;;;5035972;28;20053;-81
2021/08/28 05:03:13;;;;;;;16.85;11.52;;;24.20;73.60;;;;;;5035794;28;20079;-80
2021/08/28 05:05:39;;;;;;;15.40;10.45;;;24.40;71.70;;;;;;5036653;28;20064;-80
2021/08/28 05:08:04;;;;;;;15.20;10.73;;;24.40;70.20;;;;;;5034991;28;20085;-81
2021/08/28 05:10:30;;;;;;;14.48;9.77;;;24.20;69.40;;;;;;5036325;28;20486;-81
2021/08/28 05:12:56;;;;;;;15.73;10.27;;;23.70;68.90;;;;;;5036205;28;20032;-81
2021/08/28 05:15:22;;;;;;;14.20;10.00;;;23.30;69.40;;;;;;5035862;28;20030;-80
2021/08/28 05:17:48;;;;;;;18.65;11.32;;;23.00;70.10;;;;;;5034513;28;20033;-80
2021/08/28 05:20:13;;;;;;;15.82;11.38;;;22.60;70.90;;;;;;5034689;28;20083;-80
2021/08/28 05:22:39;;;;;;;15.93;10.82;;;22.30;71.70;;;;;;5034310;28;20026;-81
2021/08/28 05:25:05;;;;;;;16.08;10.38;;;22.00;72.30;;;;;;5034570;28;20026;-81
2021/08/28 05:27:31;;;;;;;12.30;9.50;;;21.90;73.60;;;;;;5034988;28;20076;-81
2021/08/28 05:29:57;;;;;;;15.88;9.95;;;22.20;74.10;;;;;;5036001;28;20037;-81
2021/08/28 05:32:22;;;;;;;13.00;9.20;;;22.90;73.60;;;;;;5034067;28;20037;-80
2021/08/28 05:34:49;;;;;;;16.10;9.27;;;23.60;72.20;;;;;;5035622;28;20037;-80
2021/08/28 05:37:15;;;;;;;13.57;8.43;;;24.30;71.00;;;;;;5035808;28;20025;-81
2021/08/28 05:39:40;;;;;;;12.90;8.80;;;25.00;68.70;;;;;;5034430;28;20471;-80
2021/08/28 05:42:06;;;;;;;15.93;8.32;;;25.60;66.90;;;;;;5035550;28;20033;-81
2021/08/28 05:44:32;;;;;;;13.48;8.55;;;26.10;65.40;;;;;;5035807;28;20033;-81
2021/08/28 05:46:58;;;;;;;13.60;9.02;;;26.50;64.70;;;;;;5033858;28;20065;-81
2021/08/28 05:49:23;;;;;;;11.77;8.63;;;27.00;63.70;;;;;;5034043;28;20471;-82
2021/08/28 05:51:49;;;;;;;11.00;8.52;;;27.20;61.70;;;;;;5033818;28;20064;-81
2021/08/28 05:54:14;;;;;;;10.50;8.18;;;27.20;61.70;;;;;;5034154;28;20055;-80
2021/08/28 05:56:40;;;;;;;11.60;7.60;;;27.30;60.60;;;;;;5034008;28;20483;-80
2021/08/28 05:59:06;;;;;;;12.88;7.95;;;27.30;60.40;;;;;;5034228;28;20043;-81
2021/08/28 06:01:32;;;;;;;12.52;8.05;;;27.40;59.40;;;;;;5034171;28;20430;-81
2021/08/28 06:03:57;;;;;;;12.40;8.52;;;27.30;57.90;;;;;;5033810;28;20077;-81
2021/08/28 06:06:23;;;;;;;12.73;8.25;;;27.30;58.50;;;;;;5036948;28;20033;-81
2021/08/28 06:08:48;;;;;;;12.07;8.10;;;27.50;58.80;;;;;;5042642;28;20064;-81
2021/08/28 06:11:14;;;;;;;12.60;8.50;;;27.80;58.80;;;;;;5036533;28;20032;-80
2021/08/28 06:13:40;;;;;;;12.27;8.57;;;28.10;57.50;;;;;;5035857;28;20036;-80
2021/08/28 06:16:05;;;;;;;11.85;8.05;;;28.20;57.10;;;;;;5038012;28;20029;-81
2021/08/28 06:18:31;;;;;;;11.95;7.32;;;28.20;56.50;;;;;;5034072;28;20029;-81
2021/08/28 06:20:58;;;;;;;19.52;8.48;;;28.30;56.50;;;;;;5034920;28;20021;-81
2021/08/28 06:23:24;;;;;;;11.60;8.18;;;28.30;56.10;;;;;;5033800;28;20032;-81
2021/08/28 06:25:50;;;;;;;15.50;8.50;;;28.30;56.00;;;;;;5034813;28;20021;-82
2021/08/28 06:28:16;;;;;;;11.98;7.72;;;28.40;55.60;;;;;;5034635;28;20508;-82
2021/08/28 06:30:42;;;;;;;12.68;8.60;;;28.70;55.90;;;;;;5033433;28;20471;-82
2021/08/28 06:33:08;;;;;;;13.10;9.18;;;28.80;56.10;;;;;;5034714;28;20032;-82
2021/08/28 06:35:34;;;;;;;13.70;8.43;;;28.50;55.80;;;;;;5034538;28;20029;-82
2021/08/28 06:38:00;;;;;;;13.05;9.32;;;28.20;55.40;;;;;;5033406;28;20409;-82
2021/08/28 06:40:25;;;;;;;12.10;9.13;;;27.80;55.90;;;;;;5034400;28;20022;-82
2021/08/28 06:42:51;;;;;;;13.65;8.32;;;27.50;56.20;;;;;;5034438;28;20025;-82
2021/08/28 06:45:17;;;;;;;12.95;8.73;;;27.30;56.70;;;;;;5033066;28;20026;-82
2021/08/28 06:47:43;;;;;;;11.43;7.30;;;27.00;56.80;;;;;;5033122;28;20061;-82
2021/08/28 06:50:09;;;;;;;15.20;7.80;;;26.90;57.60;;;;;;5033149;28;20120;-82
2021/08/28 06:52:37;;;;;;;14.32;7.78;;;26.90;57.60;;;;;;5032970;28;20490;-81
2021/08/28 06:55:03;;;;;;;13.55;9.90;;;26.90;57.10;;;;;;5032833;28;20441;-82
2021/08/28 06:57:29;;;;;;;14.48;7.90;;;26.90;57.70;;;;;;5032906;28;20064;-82
2021/08/28 06:59:55;;;;;;;13.00;8.02;;;27.10;57.10;;;;;;5032624;28;20085;-81
2021/08/28 07:02:22;;;;;;;14.02;8.43;;;27.00;56.50;;;;;;5032983;28;20026;-82
2021/08/28 07:04:47;;;;;;;16.17;10.55;;;27.10;57.20;;;;;;5032810;28;20506;-81
2021/08/28 07:07:14;;;;;;;79.60;35.03;;;27.60;56.90;;;;;;5032645;28;20033;-81
2021/08/28 07:09:40;;;;;;;51.03;22.63;;;28.10;56.40;;;;;;5032749;28;20036;-81
2021/08/28 07:12:06;;;;;;;27.17;14.88;;;28.60;55.30;;;;;;5032951;28;20468;-81
2021/08/28 07:14:32;;;;;;;17.10;9.80;;;29.20;55.20;;;;;;5032348;28;20030;-81
2021/08/28 07:17:04;;;;;;;24.17;13.27;;;29.80;54.10;;;;;;5033299;28;20086;-81
2021/08/28 07:19:30;;;;;;;14.65;10.07;;;30.10;53.20;;;;;;5033940;28;20025;-82
2021/08/28 07:21:56;;;;;;;14.65;10.38;;;30.20;52.10;;;;;;5032921;28;20030;-82
2021/08/28 07:24:21;;;;;;;36.40;14.65;;;30.10;52.70;;;;;;5032794;28;20518;-82
2021/08/28 07:26:47;;;;;;;46.55;17.88;;;30.40;52.90;;;;;;5034069;28;20039;-82
2021/08/28 07:29:13;;;;;;;60.13;22.65;;;30.70;53.20;;;;;;5032517;28;20096;-82
2021/08/28 07:31:39;;;;;;;65.68;25.48;;;31.20;52.80;;;;;;5032441;28;20026;-81
2021/08/28 07:34:04;;;;;;;42.70;19.95;;;31.60;52.30;;;;;;5032607;28;20459;-82
2021/08/28 07:36:30;;;;;;;16.58;10.68;;;32.10;51.80;;;;;;5032768;28;20048;-82
2021/08/28 07:38:56;;;;;;;21.52;12.40;;;32.40;50.00;;;;;;5032574;28;20022;-82
2021/08/28 07:41:21;;;;;;;21.63;12.18;;;32.10;49.90;;;;;;5032532;28;20380;-82
2021/08/28 07:43:47;;;;;;;24.75;10.85;;;32.00;50.10;;;;;;5032614;28;20116;-81
2021/08/28 07:46:13;;;;;;;12.77;7.40;;;32.20;50.70;;;;;;5033920;28;20455;-81
2021/08/28 07:48:38;;;;;;;12.50;6.63;;;32.70;50.00;;;;;;5037841;28;20033;-81
2021/08/28 07:51:04;;;;;;;23.65;13.55;;;33.20;49.30;;;;;;5036500;28;20075;-81
2021/08/28 07:53:30;;;;;;;45.45;21.20;;;33.40;48.20;;;;;;5036466;28;20033;-81
2021/08/28 07:55:56;;;;;;;31.48;15.52;;;33.10;47.00;;;;;;5036924;28;20025;-82
2021/08/28 07:58:21;;;;;;;47.33;19.27;;;32.70;47.70;;;;;;5037624;28;20123;-82
2021/08/28 08:00:47;;;;;;;19.67;11.15;;;32.70;48.60;;;;;;5039032;28;20044;-82
2021/08/28 08:03:13;;;;;;;28.58;13.13;;;32.80;47.60;;;;;;5038462;28;20491;-81
2021/08/28 08:05:38;;;;;;;22.27;9.60;;;32.60;48.40;;;;;;5037521;28;20507;-80
2021/08/28 08:08:04;;;;;;;10.32;6.10;;;32.70;48.80;;;;;;5035861;28;20384;-80
2021/08/28 08:10:30;;;;;;;8.52;4.63;;;32.70;47.50;;;;;;5035901;28;20387;-81
2021/08/28 08:12:55;;;;;;;7.85;5.72;;;32.40;47.20;;;;;;5036989;28;20021;-80
2021/08/28 08:15:21;;;;;;;9.43;5.45;;;32.20;47.80;;;;;;5037906;28;20550;-80
2021/08/28 08:17:47;;;;;;;10.55;6.50;;;32.20;48.00;;;;;;5036223;28;20049;-80
2021/08/28 08:20:13;;;;;;;9.27;6.30;;;32.10;48.30;;;;;;5035949;28;20499;-79
2021/08/28 08:22:39;;;;;;;42.00;20.73;;;31.90;48.30;;;;;;5037058;28;20025;-79
2021/08/28 08:25:05;;;;;;;30.95;14.65;;;31.70;49.10;;;;;;5035746;28;20025;-83
2021/08/28 08:27:31;;;;;;;18.00;11.18;;;31.70;50.20;;;;;;5036875;28;20120;-80
2021/08/28 08:29:57;;;;;;;14.25;8.20;;;32.10;50.10;;;;;;5035681;28;20535;-80
2021/08/28 08:32:22;;;;;;;14.07;7.88;;;32.40;49.50;;;;;;5037179;28;20033;-81
2021/08/28 08:34:48;;;;;;;8.52;6.50;;;32.60;49.20;;;;;;5035831;28;20113;-81
2021/08/28 08:37:14;;;;;;;9.93;6.80;;;32.50;48.90;;;;;;5035600;28;20033;-80
2021/08/28 08:39:39;;;;;;;11.35;7.20;;;32.20;49.80;;;;;;5035541;28;20021;-81
2021/08/28 08:42:09;;;;;;;9.85;7.50;;;31.90;50.20;;;;;;5036975;28;20477;-82
2021/08/28 08:44:36;;;;;;;9.95;6.93;;;31.60;51.40;;;;;;5035691;28;20380;-81
2021/08/28 08:47:02;;;;;;;11.50;7.78;;;31.80;51.60;;;;;;5036637;28;20037;-81
2021/08/28 08:49:28;;;;;;;12.90;9.20;;;31.70;51.90;;;;;;5035717;28;20384;-81
2021/08/28 08:51:55;;;;;;;17.80;10.82;;;31.70;52.00;;;;;;5035347;28;20033;-82
2021/08/28 08:54:21;;;;;;;11.90;7.70;;;31.40;51.90;;;;;;5036399;28;20025;-81
2021/08/28 08:56:47;;;;;;;10.57;7.85;;;31.10;52.20;;;;;;5035404;28;20049;-81
2021/08/28 08:59:13;;;;;;;9.75;7.05;;;30.80;53.00;;;;;;5035132;28;20090;-81
2021/08/28 09:01:39;;;;;;;14.02;8.27;;;30.80;53.60;;;;;;5035269;28;20084;-82
2021/08/28 09:04:05;;;;;;;12.65;8.38;;;30.60;53.60;;;;;;5034969;28;20052;-82
2021/08/28 09:06:31;;;;;;;12.80;7.50;;;30.30;54.10;;;;;;5035082;28;20033;-82
2021/08/28 09:08:56;;;;;;;9.85;7.18;;;30.30;54.40;;;;;;5036095;28;20064;-82
2021/08/28 09:11:25;;;;;;;26.13;20.00;;;30.00;54.30;;;;;;5034846;28;20037;-82
2021/08/28 09:14:11;;;;;;;10.55;6.97;;;29.60;55.30;;;;;;5035182;28;20029;-82
2021/08/28 09:16:37;;;;;;;10.52;7.28;;;29.50;56.20;;;;;;5035090;28;20037;-81
2021/08/28 09:19:03;;;;;;;11.40;8.70;;;29.90;55.20;;;;;;5034933;28;20030;-81
2021/08/28 09:21:31;;;;;;;16.52;10.23;;;29.70;55.30;;;;;;5035315;28;20487;-82
2021/08/28 09:24:06;;;;;;;30.20;15.02;;;29.50;55.70;;;;;;5035813;28;20025;-81
2021/08/28 09:26:45;;;;;;;19.50;10.55;;;29.60;55.80;;;;;;5034954;28;20021;-82
2021/08/28 09:29:15;;;;;;;8.50;5.88;;;29.20;56.20;;;;;;5035883;28;20060;-81
2021/08/28 09:31:43;;;;;;;8.18;6.13;;;29.00;56.80;;;;;;5034811;28;20072;-81
2021/08/28 09:34:17;;;;;;;6.68;5.20;;;28.60;57.40;;;;;;5035729;28;20029;-79
2021/08/28 09:36:42;;;;;;;9.85;5.93;;;28.60;58.40;;;;;;5041827;28;20102;-80
2021/08/28 09:39:08;;;;;;;7.90;5.53;;;29.00;58.50;;;;;;5045948;28;20029;-80
2021/08/28 09:41:34;;;;;;;15.63;8.70;;;29.40;57.40;;;;;;5045355;28;20026;-80
2021/08/28 09:44:08;;;;;;;9.40;6.55;;;29.50;56.50;;;;;;5046001;28;20029;-80
2021/08/28 09:46:33;;;;;;;10.52;6.03;;;29.50;56.30;;;;;;5034988;28;20030;-80
2021/08/28 09:49:04;;;;;;;9.00;6.55;;;29.40;56.40;;;;;;5034131;28;20025;-80
2021/08/28 09:51:34;;;;;;;8.00;5.63;;;29.10;56.10;;;;;;5034510;28;20379;-80
2021/08/28 09:54:00;;;;;;;6.68;4.75;;;29.10;57.00;;;;;;5035245;28;20025;-79
2021/08/28 09:56:29;;;;;;;14.45;7.00;;;29.40;56.00;;;;;;5033871;28;20025;-79
2021/08/28 09:58:57;;;;;;;7.60;5.43;;;29.80;54.80;;;;;;5033932;28;20075;-81
2021/08/28 10:01:23;;;;;;;25.10;10.38;;;30.30;54.40;;;;;;5035450;28;20486;-81
2021/08/28 10:03:59;;;;;;;8.52;5.72;;;31.00;53.90;;;;;;5033686;28;20041;-81
2021/08/28 10:06:26;;;;;;;9.00;5.35;;;30.80;52.80;;;;;;5034319;28;20460;-81
2021/08/28 10:08:52;;;;;;;10.40;5.80;;;30.80;53.00;;;;;;5033493;28;20039;-81
2021/08/28 10:11:21;;;;;;;7.05;5.05;;;31.10;53.00;;;;;;5033268;28;20040;-82
2021/08/28 10:13:48;;;;;;;8.73;6.43;;;31.40;51.70;;;;;;5034161;28;20456;-81
2021/08/28 10:16:15;;;;;;;11.13;6.97;;;31.60;51.40;;;;;;5033693;28;20403;-81
2021/08/28 10:18:44;;;;;;;8.35;6.15;;;31.60;51.20;;;;;;5034914;28;20083;-81
2021/08/28 10:21:12;;;;;;;9.93;6.50;;;30.90;51.50;;;;;;5033490;28;20030;-81
2021/08/28 10:23:39;;;;;;;16.98;9.32;;;30.40;52.80;;;;;;5033417;28;20033;-81
2021/08/28 10:26:10;;;;;;;16.38;9.98;;;30.40;53.60;;;;;;5034733;28;20068;-80
2021/08/28 10:28:40;;;;;;;14.23;7.85;;;30.80;53.80;;;;;;5034928;28;20116;-81
2021/08/28 10:31:09;;;;;;;16.13;8.35;;;31.70;52.60;;;;;;5033956;28;20037;-80
2021/08/28 10:33:34;;;;;;;8.80;5.53;;;32.50;51.50;;;;;;5033171;28;20059;-81
2021/08/28 10:36:00;;;;;;;8.25;4.93;;;33.00;50.10;;;;;;5033362;28;20068;-81
2021/08/28 10:38:27;;;;;;;8.45;6.00;;;33.30;49.70;;;;;;5033172;28;20556;-80
2021/08/28 10:40:55;;;;;;;8.13;5.38;;;33.20;48.40;;;;;;5034567;28;20033;-80
2021/08/28 10:43:22;;;;;;;8.50;5.78;;;33.30;48.60;;;;;;5034803;28;20143;-83
2021/08/28 10:45:48;;;;;;;7.72;5.18;;;33.60;48.10;;;;;;5033437;28;20075;-83
2021/08/28 10:48:15;;;;;;;9.88;5.60;;;33.70;47.60;;;;;;5034107;28;20044;-80
2021/08/28 10:50:43;;;;;;;7.72;6.00;;;33.30;47.30;;;;;;5034246;28;20030;-80
2021/08/28 10:53:10;;;;;;;7.07;5.75;;;32.60;47.80;;;;;;5033064;28;20021;-80
2021/08/28 10:55:42;;;;;;;7.40;5.18;;;32.50;48.60;;;;;;5033585;28;20527;-81
2021/08/28 10:58:23;;;;;;;7.47;5.30;;;32.60;49.10;;;;;;5033027;28;20061;-81
2021/08/28 11:00:52;;;;;;;7.45;5.30;;;32.40;49.20;;;;;;5034507;28;20021;-81
2021/08/28 11:03:27;;;;;;;6.93;5.60;;;32.60;49.50;;;;;;5034066;28;20112;-80
2021/08/28 11:06:21;;;;;;;7.78;5.60;;;33.00;48.50;;;;;;5033617;28;20115;-81
2021/08/28 11:08:52;;;;;;;10.80;6.97;;;33.00;48.20;;;;;;5033336;28;20037;-81
2021/08/28 11:11:38;;;;;;;13.63;8.13;;;32.50;48.60;;;;;;5038382;28;20029;-81
2021/08/28 11:14:13;;;;;;;12.45;7.65;;;31.90;49.30;;;;;;5038951;28;20482;-81
2021/08/28 11:16:42;;;;;;;15.40;7.50;;;31.40;49.90;;;;;;5036908;28;20036;-80
2021/08/28 11:19:12;;;;;;;9.20;6.65;;;30.90;51.00;;;;;;5041587;28;20059;-80
2021/08/28 11:21:43;;;;;;;9.02;5.97;;;30.60;51.90;;;;;;5040320;28;20027;-80
2021/08/28 11:24:23;;;;;;;8.85;5.75;;;30.90;51.90;;;;;;5041406;28;20471;-81
2021/08/28 11:26:58;;;;;;;7.45;5.63;;;31.10;51.40;;;;;;5033449;28;20072;-81
2021/08/28 11:29:23;;;;;;;;;;;31.30;51.00;;;;;;5034944;28;20029;-81
2021/08/28 11:32:11;;;;;;;10.38;7.03;;;31.60;51.20;;;;;;5033123;28;19955;-82
2021/08/28 11:34:57;;;;;;;9.30;7.03;;;32.20;50.70;;;;;;5032495;28;20033;-82
2021/08/28 11:37:29;;;;;;;9.27;6.00;;;32.80;49.70;;;;;;5032305;28;20033;-82
2021/08/28 11:39:59;;;;;;;7.38;5.82;;;33.10;49.00;;;;;;5032412;28;20025;-83
2021/08/28 11:42:26;;;;;;;8.30;6.00;;;33.00;48.00;;;;;;5032266;28;20088;-82
2021/08/28 11:44:54;;;;;;;8.68;6.05;;;32.90;48.40;;;;;;5032605;28;20040;-82
2021/08/28 11:47:20;;;;;;;21.38;11.43;;;32.60;48.50;;;;;;5032110;28;20165;-83
2021/08/28 11:49:50;;;;;;;19.55;9.60;;;32.20;48.70;;;;;;5032560;28;20512;-82
2021/08/28 11:52:17;;;;;;;12.23;7.13;;;31.70;49.90;;;;;;5033772;28;20139;-83
2021/08/28 11:54:44;;;;;;;12.38;6.90;;;31.30;50.60;;;;;;5032499;28;20045;-82
2021/08/28 11:57:10;;;;;;;8.98;6.55;;;30.90;51.10;;;;;;5031992;28;20164;-82
2021/08/28 11:59:37;;;;;;;12.35;7.93;;;30.50;50.80;;;;;;5033505;28;20116;-82
2021/08/28 12:02:04;;;;;;;21.95;12.07;;;30.00;52.00;;;;;;5032617;28;20424;-81
2021/08/28 12:04:33;;;;;;;29.17;13.57;;;29.50;53.30;;;;;;5031735;28;20092;-81
2021/08/28 12:07:00;;;;;;;20.20;11.25;;;29.40;54.00;;;;;;5032212;28;20495;-81
2021/08/28 12:09:26;;;;;;;18.20;11.00;;;29.30;54.40;;;;;;5032414;28;20038;-81
2021/08/28 12:11:53;;;;;;;15.85;9.32;;;29.40;54.80;;;;;;5032795;28;20052;-81
2021/08/28 12:14:20;;;;;;;25.30;12.48;;;29.40;54.80;;;;;;5033844;28;20025;-80
2021/08/28 12:16:47;;;;;;;29.17;13.70;;;29.40;55.10;;;;;;5033251;28;20383;-80
2021/08/28 12:19:24;;;;;;;37.92;16.95;;;29.30;55.20;;;;;;5032095;28;20111;-80
2021/08/28 12:22:10;;;;;;;25.55;12.77;;;29.10;55.40;;;;;;5032126;28;20514;-80
2021/08/28 12:24:39;;;;;;;23.23;11.80;;;28.90;55.00;;;;;;5031860;28;20049;-81
2021/08/28 12:27:12;;;;;;;27.70;12.02;;;28.90;55.80;;;;;;5031637;28;20037;-80
2021/08/28 12:29:41;;;;;;;32.38;14.82;;;29.10;55.90;;;;;;5033215;28;20152;-80
2021/08/28 12:32:09;;;;;;;27.55;12.20;;;29.40;55.40;;;;;;5033267;28;20105;-80
2021/08/28 12:34:37;;;;;;;22.23;8.82;;;29.50;55.30;;;;;;5035374;28;20025;-80
2021/08/28 12:37:05;;;;;;;25.23;12.95;;;29.70;55.50;;;;;;5035416;28;20065;-81